Time;durP1;ratioP1;P1;durP2;ratioP2;P2;SDS_P1;SDS_P2;PMS_P1;PMS_P2;Temp;Humidity;BMP_temperature;BMP_pressure;BME280_temperature;BME280_humidity;BME280_pressure;Samples;Min_cycle;Max_cycle;Signal;HPM_P1;HPM_P2
2023/08/09 00:00:46;;;;;;;0.00;0.00;;;;;;;19.51;55.19;100857.78;7356294;19;20018;-56
2023/08/09 00:03:12;;;;;;;0.10;0.10;;;;;;;19.40;55.64;100835.41;7356498;19;20052;-57
2023/08/09 00:05:37;;;;;;;0.10;0.10;;;;;;;19.47;55.35;100861.56;7353645;19;20485;-55
2023/08/09 00:08:03;;;;;;;0.10;0.10;;;;;;;19.41;54.99;100853.03;7352131;19;20015;-57
2023/08/09 00:10:28;;;;;;;0.10;0.10;;;;;;;19.41;55.08;100853.03;7352888;19;20075;-57
2023/08/09 00:12:54;;;;;;;0.00;0.00;;;;;;;19.39;55.79;100862.00;7354544;19;20033;-55
2023/08/09 00:15:19;;;;;;;0.00;0.00;;;;;;;19.36;55.20;100870.97;7354591;19;20018;-55
2023/08/09 00:17:45;;;;;;;0.10;0.10;;;;;;;19.32;55.56;100868.59;7351012;19;20033;-57
2023/08/09 00:20:11;;;;;;;0.00;0.00;;;;;;;19.27;55.75;100866.19;7355674;19;20017;-56
2023/08/09 00:22:38;;;;;;;0.10;0.10;;;;;;;19.25;55.94;100872.50;7353191;19;20015;-56
2023/08/09 00:25:04;;;;;;;0.10;0.10;;;;;;;19.30;56.05;100894.28;7353704;19;20039;-57
2023/08/09 00:27:29;;;;;;;0.00;0.00;;;;;;;19.30;56.45;100894.28;7352565;19;21022;-56
2023/08/09 00:29:55;;;;;;;0.00;0.00;;;;;;;19.28;55.97;100897.03;7355723;19;21475;-57
2023/08/09 00:32:20;;;;;;;0.10;0.10;;;;;;;19.28;56.36;100894.38;7353695;19;20006;-59
2023/08/09 00:34:46;;;;;;;0.10;0.10;;;;;;;19.30;56.31;100902.22;7356923;19;20419;-57
2023/08/09 00:37:11;;;;;;;0.10;0.10;;;;;;;19.27;56.27;100905.91;7351182;19;20018;-57
2023/08/09 00:39:37;;;;;;;0.00;0.00;;;;;;;19.30;56.11;100918.97;7354263;19;20030;-57
2023/08/09 00:42:02;;;;;;;0.10;0.10;;;;;;;19.30;56.66;100918.97;7347483;19;20368;-56
2023/08/09 00:44:29;;;;;;;0.03;0.03;;;;;;;19.31;56.25;100918.06;7355469;19;20800;-57
2023/08/09 00:46:55;;;;;;;0.10;0.10;;;;;;;19.31;56.42;100915.41;7352810;19;20017;-57
2023/08/09 00:49:20;;;;;;;0.00;0.00;;;;;;;19.30;56.18;100912.81;7351521;19;20006;-57
2023/08/09 00:51:46;;;;;;;0.00;0.00;;;;;;;19.23;56.48;100900.88;7353913;19;20885;-57
2023/08/09 00:54:12;;;;;;;0.03;0.03;;;;;;;19.28;56.11;100904.97;7340560;19;20018;-57
2023/08/09 00:56:38;;;;;;;0.00;0.00;;;;;;;19.28;56.62;100904.97;7353797;19;20030;-57
2023/08/09 00:59:04;;;;;;;0.10;0.10;;;;;;;19.26;56.58;100901.56;7354022;19;20024;-57
2023/08/09 01:01:29;;;;;;;0.10;0.10;;;;;;;19.27;56.83;100892.69;7352753;19;20023;-57
2023/08/09 01:03:55;;;;;;;0.00;0.00;;;;;;;19.28;56.55;100899.66;7354447;19;20018;-56
2023/08/09 01:06:26;;;;;;;0.00;0.00;;;;;;;19.28;56.35;100899.66;7352022;19;20038;-57
2023/08/09 01:09:06;;;;;;;0.00;0.00;;;;;;;19.28;56.26;100886.44;7349546;19;20568;-57
2023/08/09 01:11:55;;;;;;;0.10;0.10;;;;;;;19.31;55.76;100880.97;7351306;19;20014;-57
2023/08/09 01:14:22;;;;;;;0.08;0.08;;;;;;;19.25;57.10;100881.28;7352275;19;20037;-57
2023/08/09 01:16:49;;;;;;;0.10;0.10;;;;;;;19.23;56.79;100869.94;7352902;19;20526;-57
2023/08/09 01:19:36;;;;;;;0.10;0.10;;;;;;;19.23;55.59;100869.94;7349243;19;20002;-56
2023/08/09 01:22:07;;;;;;;0.05;0.05;;;;;;;19.19;56.51;100873.72;7348767;19;20021;-56
2023/08/09 01:24:33;;;;;;;0.10;0.10;;;;;;;19.14;57.41;100870.47;7347808;19;20006;-57
2023/08/09 01:26:58;;;;;;;0.10;0.10;;;;;;;19.10;56.73;100869.78;7351578;19;20023;-57
2023/08/09 01:29:24;;;;;;;0.00;0.00;;;;;;;18.99;57.07;100866.00;7352397;19;20099;-57
2023/08/09 01:31:50;;;;;;;0.08;0.08;;;;;;;19.06;57.22;100886.78;7351906;19;20024;-56
2023/08/09 01:34:16;;;;;;;0.10;0.10;;;;;;;19.03;56.80;100884.28;7350649;19;20017;-56
2023/08/09 01:36:50;;;;;;;0.10;0.10;;;;;;;19.04;56.75;100880.69;7347386;19;20030;-55
2023/08/09 01:39:21;;;;;;;0.08;0.08;;;;;;;19.04;57.04;100877.19;7351622;19;20017;-57
2023/08/09 01:41:48;;;;;;;0.00;0.00;;;;;;;19.02;57.78;100877.28;7348830;19;20003;-55
2023/08/09 01:44:15;;;;;;;0.03;0.03;;;;;;;18.96;57.30;100866.16;7352003;19;20044;-57
2023/08/09 01:46:41;;;;;;;0.10;0.10;;;;;;;19.01;57.58;100880.00;7356059;19;20029;-57
2023/08/09 01:49:21;;;;;;;0.00;0.00;;;;;;;19.03;56.83;100883.44;7349671;19;20010;-56
2023/08/09 01:51:47;;;;;;;0.00;0.00;;;;;;;19.00;58.02;100891.53;7349251;19;20060;-57
2023/08/09 01:54:13;;;;;;;0.10;0.10;;;;;;;18.97;58.67;100878.50;7351144;19;20014;-55
2023/08/09 01:56:40;;;;;;;0.10;0.10;;;;;;;19.00;57.81;100894.19;7351837;19;20030;-58
2023/08/09 01:59:05;;;;;;;0.10;0.10;;;;;;;18.96;58.17;100890.00;7346813;19;20038;-57
2023/08/09 02:01:31;;;;;;;0.10;0.10;;;;;;;19.00;57.81;100899.47;7350576;19;20078;-57
2023/08/09 02:03:57;;;;;;;0.00;0.00;;;;;;;19.01;58.12;100895.88;7351207;19;20749;-56
2023/08/09 02:06:22;;;;;;;0.10;0.10;;;;;;;19.01;58.24;100888.81;7349005;19;20059;-55
2023/08/09 02:08:48;;;;;;;0.00;0.00;;;;;;;18.99;58.63;100900.41;7349561;19;20369;-55
2023/08/09 02:11:13;;;;;;;0.00;0.00;;;;;;;19.03;58.55;100900.16;7346772;19;20017;-56
2023/08/09 02:13:39;;;;;;;0.10;0.10;;;;;;;19.04;58.37;100901.03;7348361;19;20055;-57
2023/08/09 02:16:05;;;;;;;0.05;0.05;;;;;;;19.06;58.08;100893.84;7348258;19;20010;-57
2023/08/09 02:18:33;;;;;;;0.10;0.10;;;;;;;19.08;58.25;100902.56;7351382;19;20098;-57
2023/08/09 02:20:59;;;;;;;0.10;0.10;;;;;;;19.09;58.69;100901.63;7345594;19;20014;-56
2023/08/09 02:23:25;;;;;;;0.08;0.08;;;;;;;19.10;59.26;100905.97;7352198;19;20026;-56
2023/08/09 02:25:54;;;;;;;0.10;0.10;;;;;;;19.13;58.24;100900.53;7346792;19;20019;-57
2023/08/09 02:28:20;;;;;;;0.10;0.10;;;;;;;19.11;58.96;100899.72;7344509;19;20014;-55
2023/08/09 02:30:46;;;;;;;0.10;0.10;;;;;;;19.10;58.76;100900.69;7347323;19;20021;-58
2023/08/09 02:33:11;;;;;;;0.10;0.10;;;;;;;19.11;59.04;100905.03;7348334;19;20010;-56
2023/08/09 02:35:58;;;;;;;0.00;0.00;;;;;;;19.15;57.61;100907.44;7348303;19;20010;-55
2023/08/09 02:38:25;;;;;;;0.10;0.10;;;;;;;19.04;59.19;100887.78;7348265;19;20099;-55
2023/08/09 02:40:51;;;;;;;0.10;0.10;;;;;;;19.13;59.09;100895.22;7354885;19;20026;-56
2023/08/09 02:43:21;;;;;;;0.10;0.10;;;;;;;19.14;59.13;100892.50;7349180;19;20048;-55
2023/08/09 02:45:47;;;;;;;0.10;0.10;;;;;;;19.12;59.48;100883.78;7355344;19;20014;-57
2023/08/09 02:48:13;;;;;;;0.10;0.10;;;;;;;19.12;59.68;100889.09;7351378;19;20018;-57
2023/08/09 02:50:39;;;;;;;0.00;0.00;;;;;;;19.03;59.88;100868.41;7356829;19;20082;-56
2023/08/09 02:53:05;;;;;;;0.00;0.00;;;;;;;19.03;60.27;100870.22;7356104;19;21035;-56
2023/08/09 02:55:32;;;;;;;0.10;0.10;;;;;;;19.12;60.24;100889.09;7353473;19;20463;-57
2023/08/09 02:58:03;;;;;;;0.10;0.10;;;;;;;19.14;59.44;100883.69;7354879;19;20028;-56
2023/08/09 03:00:29;;;;;;;0.10;0.10;;;;;;;19.12;60.18;100893.53;7354520;19;20058;-55
2023/08/09 03:02:54;;;;;;;0.00;0.00;;;;;;;19.12;59.39;100888.22;7348873;19;20014;-55
2023/08/09 03:05:19;;;;;;;0.10;0.10;;;;;;;19.11;60.04;100886.50;7355421;19;20734;-58
2023/08/09 03:07:45;;;;;;;0.00;0.00;;;;;;;19.09;60.27;100883.94;7350917;19;20010;-57
2023/08/09 03:10:10;;;;;;;0.10;0.10;;;;;;;19.14;60.17;100896.94;7356670;19;20009;-57
2023/08/09 03:12:36;;;;;;;0.10;0.10;;;;;;;19.14;60.05;100899.59;7345176;19;20010;-57
2023/08/09 03:15:04;;;;;;;0.10;0.10;;;;;;;19.16;59.65;100900.38;7357021;19;20638;-55
2023/08/09 03:17:30;;;;;;;0.05;0.05;;;;;;;19.13;60.20;100895.22;7350090;19;20021;-56
2023/08/09 03:19:55;;;;;;;0.10;0.10;;;;;;;19.15;60.29;100901.28;7330611;19;20010;-56
2023/08/09 03:22:21;;;;;;;0.10;0.10;;;;;;;19.16;60.09;100910.97;7350958;19;20621;-57
2023/08/09 03:24:47;;;;;;;0.03;0.03;;;;;;;19.16;60.63;100916.25;7351337;19;20018;-57
2023/08/09 03:27:12;;;;;;;0.00;0.00;;;;;;;19.17;60.88;100904.72;7355547;19;20593;-56
2023/08/09 03:29:37;;;;;;;0.10;0.10;;;;;;;19.17;60.30;100905.56;7353357;19;20014;-55
2023/08/09 03:32:03;;;;;;;0.10;0.10;;;;;;;19.17;60.63;100904.72;7354054;19;20022;-57
2023/08/09 03:34:28;;;;;;;0.10;0.10;;;;;;;19.18;60.48;100901.13;7357833;19;20502;-57
2023/08/09 03:36:54;;;;;;;0.10;0.10;;;;;;;19.17;60.49;100905.56;7359155;19;20014;-56
2023/08/09 03:39:21;;;;;;;0.00;0.00;;;;;;;19.16;60.44;100906.50;7358374;19;20569;-58
2023/08/09 03:41:47;;;;;;;0.10;0.10;;;;;;;19.18;60.25;100909.06;7357027;19;20007;-56
2023/08/09 03:44:13;;;;;;;0.00;0.00;;;;;;;19.13;59.90;100905.81;7358317;19;20637;-57
2023/08/09 03:46:39;;;;;;;0.10;0.10;;;;;;;19.19;60.10;100921.34;7356126;19;20033;-55
2023/08/09 03:49:04;;;;;;;0.00;0.00;;;;;;;19.07;60.01;100892.94;7357033;19;20789;-58
2023/08/09 03:51:30;;;;;;;0.10;0.10;;;;;;;19.21;60.40;100913.31;7354979;19;20044;-55
2023/08/09 03:53:55;;;;;;;0.10;0.10;;;;;;;19.10;60.43;100895.38;7358332;19;20450;-56
2023/08/09 03:56:21;;;;;;;0.00;0.00;;;;;;;19.21;59.96;100911.56;7355386;19;20373;-55
2023/08/09 03:58:47;;;;;;;0.08;0.08;;;;;;;19.14;60.38;100897.78;7356666;19;20015;-55
2023/08/09 04:01:12;;;;;;;0.10;0.10;;;;;;;19.23;60.21;100908.81;7358193;19;20042;-56
2023/08/09 04:03:38;;;;;;;0.10;0.10;;;;;;;19.24;60.16;100900.78;7356243;19;20018;-55
2023/08/09 04:06:05;;;;;;;0.10;0.10;;;;;;;19.24;60.21;100898.13;7357141;19;20032;-55
2023/08/09 04:08:31;;;;;;;;;;;;;;;19.31;58.52;100894.22;7356951;19;20025;-56
2023/08/09 04:10:56;;;;;;;0.10;0.10;;;;;;;19.26;60.07;100898.91;7357213;19;19923;-57
2023/08/09 04:13:22;;;;;;;0.10;0.10;;;;;;;19.20;60.30;100896.59;7356591;19;20002;-56
2023/08/09 04:15:47;;;;;;;0.10;0.10;;;;;;;19.24;60.72;100908.72;7353262;19;20066;-57
2023/08/09 04:18:14;;;;;;;0.00;0.00;;;;;;;19.24;60.64;100908.72;7356097;19;20468;-57
2023/08/09 04:20:40;;;;;;;0.10;0.10;;;;;;;19.24;60.52;100914.03;7355715;19;20022;-55
2023/08/09 04:23:06;;;;;;;0.00;0.00;;;;;;;19.12;60.48;100890.88;7355091;19;20007;-55
2023/08/09 04:25:32;;;;;;;0.10;0.10;;;;;;;19.19;60.46;100910.78;7357947;19;20046;-57
2023/08/09 04:27:58;;;;;;;0.10;0.10;;;;;;;19.25;61.06;100909.56;7355766;19;20007;-57
2023/08/09 04:30:24;;;;;;;0.00;0.00;;;;;;;19.18;60.89;100899.31;7355597;19;20030;-56
2023/08/09 04:32:49;;;;;;;0.10;0.10;;;;;;;19.25;60.78;100910.41;7357125;19;20025;-56
2023/08/09 04:35:15;;;;;;;0.00;0.00;;;;;;;19.26;60.99;100906.88;7356679;19;20018;-56
2023/08/09 04:37:40;;;;;;;0.10;0.10;;;;;;;19.20;61.00;100901.88;7354974;19;20010;-57
2023/08/09 04:40:13;;;;;;;0.00;0.00;;;;;;;19.28;60.98;100912.06;7358294;19;20010;-57
2023/08/09 04:42:41;;;;;;;0.10;0.10;;;;;;;19.30;60.93;100913.66;7356688;19;20007;-57
2023/08/09 04:45:11;;;;;;;0.08;0.08;;;;;;;19.31;60.96;100920.69;7354839;19;20026;-55
2023/08/09 04:47:37;;;;;;;0.10;0.10;;;;;;;19.28;61.25;100912.91;7352729;19;20866;-57
2023/08/09 04:50:04;;;;;;;0.00;0.00;;;;;;;19.29;61.40;100911.13;7356094;19;20006;-57
2023/08/09 04:52:30;;;;;;;0.05;0.05;;;;;;;19.30;61.39;100910.16;7352277;19;20048;-57
2023/08/09 04:54:56;;;;;;;0.10;0.10;;;;;;;19.30;61.32;100912.81;7356386;19;20645;-57
2023/08/09 04:57:21;;;;;;;0.10;0.10;;;;;;;19.30;60.92;100923.41;7353892;19;20010;-56
2023/08/09 04:59:47;;;;;;;0.08;0.08;;;;;;;19.29;61.48;100929.66;7357627;19;20742;-58
2023/08/09 05:02:12;;;;;;;0.00;0.00;;;;;;;19.29;61.43;100930.50;7352516;19;20018;-57
2023/08/09 05:04:37;;;;;;;0.10;0.10;;;;;;;19.29;61.53;100927.84;7355819;19;20026;-56
2023/08/09 05:07:04;;;;;;;0.00;0.00;;;;;;;19.28;61.57;100936.75;7354710;19;20479;-57
2023/08/09 05:09:30;;;;;;;0.00;0.00;;;;;;;19.29;61.62;100941.09;7354817;19;20006;-57
2023/08/09 05:11:56;;;;;;;0.10;0.10;;;;;;;19.29;61.42;100942.88;7352203;19;20022;-57
2023/08/09 05:14:22;;;;;;;0.00;0.00;;;;;;;19.29;61.55;100941.09;7354593;19;20041;-56
2023/08/09 05:16:47;;;;;;;0.10;0.10;;;;;;;19.26;61.20;100933.34;7354930;19;20434;-57
2023/08/09 05:19:13;;;;;;;0.03;0.03;;;;;;;19.19;61.25;100916.91;7354181;19;20042;-57
2023/08/09 05:21:38;;;;;;;0.10;0.10;;;;;;;19.28;61.56;100931.44;7352883;19;20022;-57
2023/08/09 05:24:04;;;;;;;0.03;0.03;;;;;;;19.32;61.58;100940.94;7356156;19;20025;-57
2023/08/09 05:26:29;;;;;;;0.10;0.10;;;;;;;19.32;61.10;100933.00;7354130;19;20022;-54
2023/08/09 05:28:55;;;;;;;0.10;0.10;;;;;;;19.34;61.36;100940.84;7356647;19;20599;-57
2023/08/09 05:31:20;;;;;;;0.10;0.10;;;;;;;19.35;60.99;100945.19;7353213;19;20010;-55
2023/08/09 05:33:45;;;;;;;0.00;0.00;;;;;;;19.36;62.08;100942.47;7354845;19;20021;-57
2023/08/09 05:36:11;;;;;;;0.10;0.10;;;;;;;19.34;61.26;100930.25;7352810;19;20006;-58
2023/08/09 05:38:36;;;;;;;0.08;0.08;;;;;;;19.38;61.73;100943.25;7353917;19;20007;-57
2023/08/09 05:41:02;;;;;;;0.10;0.10;;;;;;;19.39;61.40;100944.09;7356353;19;20030;-57
2023/08/09 05:43:27;;;;;;;0.10;0.10;;;;;;;19.40;61.54;100941.34;7352763;19;20796;-57
2023/08/09 05:45:52;;;;;;;0.00;0.00;;;;;;;19.40;61.38;100936.06;7354499;19;20109;-57
2023/08/09 05:48:18;;;;;;;0.00;0.00;;;;;;;19.44;61.76;100947.34;7352616;19;20017;-57
2023/08/09 05:50:44;;;;;;;0.00;0.00;;;;;;;19.45;61.84;100944.59;7350840;19;20385;-57
2023/08/09 05:53:09;;;;;;;0.00;0.00;;;;;;;19.48;62.17;100940.09;7355425;19;20014;-57
2023/08/09 05:55:35;;;;;;;0.00;0.00;;;;;;;19.48;62.48;100937.44;7353845;19;20014;-57
2023/08/09 05:58:01;;;;;;;0.10;0.10;;;;;;;19.48;62.53;100935.63;7349476;19;20013;-57
2023/08/09 06:00:26;;;;;;;0.00;0.00;;;;;;;19.50;62.73;100940.84;7353819;19;20023;-58
2023/08/09 06:02:52;;;;;;;0.00;0.00;;;;;;;19.51;62.98;100948.69;7351795;19;20335;-57
2023/08/09 06:05:23;;;;;;;0.08;0.08;;;;;;;19.45;63.36;100939.28;7352127;19;20780;-57
2023/08/09 06:07:48;;;;;;;0.10;0.10;;;;;;;19.51;62.70;100950.50;7352382;19;20015;-57
2023/08/09 06:10:13;;;;;;;0.10;0.10;;;;;;;19.51;63.39;100942.53;7347319;19;20010;-57
2023/08/09 06:12:39;;;;;;;0.00;0.00;;;;;;;19.52;62.93;100945.13;7349429;19;20036;-57
2023/08/09 06:15:05;;;;;;;0.10;0.10;;;;;;;19.54;63.26;100947.69;7356451;19;20031;-57
2023/08/09 06:17:31;;;;;;;0.10;0.10;;;;;;;19.53;63.13;100945.97;7356594;19;20010;-56
2023/08/09 06:19:57;;;;;;;0.10;0.10;;;;;;;19.54;63.85;100945.03;7359689;19;20025;-57
2023/08/09 06:22:23;;;;;;;0.10;0.10;;;;;;;19.54;63.32;100937.94;7357687;19;20028;-58
2023/08/09 06:24:48;;;;;;;0.10;0.10;;;;;;;19.47;63.63;100930.44;7359035;19;20010;-56
2023/08/09 06:27:14;;;;;;;0.00;0.00;;;;;;;19.58;63.41;100943.94;7358153;19;20015;-57
2023/08/09 06:29:39;;;;;;;0.00;0.00;;;;;;;19.59;63.29;100940.31;7356242;19;20038;-56
2023/08/09 06:32:05;;;;;;;0.10;0.10;;;;;;;19.61;63.90;100949.06;7357300;19;20007;-57
2023/08/09 06:34:30;;;;;;;0.00;0.00;;;;;;;19.63;63.96;100953.34;7356285;19;20392;-56
2023/08/09 06:36:56;;;;;;;0.10;0.10;;;;;;;19.67;63.52;100959.34;7351660;19;20010;-57
2023/08/09 06:39:21;;;;;;;0.00;0.00;;;;;;;19.68;63.79;100955.75;7357463;19;20011;-57
2023/08/09 06:41:48;;;;;;;0.00;0.00;;;;;;;19.71;63.54;100968.81;7358302;19;20030;-57
2023/08/09 06:44:13;;;;;;;0.08;0.08;;;;;;;19.73;63.72;100963.44;7353153;19;20086;-57
2023/08/09 06:46:39;;;;;;;0.00;0.00;;;;;;;19.73;63.73;100961.63;7359742;19;20462;-57
2023/08/09 06:49:04;;;;;;;0.00;0.00;;;;;;;19.76;63.76;100968.53;7357770;19;20637;-57
2023/08/09 06:51:29;;;;;;;0.00;0.00;;;;;;;19.79;63.48;100974.53;7358618;19;20010;-55
2023/08/09 06:53:55;;;;;;;0.10;0.10;;;;;;;19.81;63.92;100979.72;7355450;19;20753;-58
2023/08/09 06:56:20;;;;;;;0.10;0.10;;;;;;;19.82;63.78;100984.97;7335067;19;20078;-55
2023/08/09 06:58:46;;;;;;;0.10;0.10;;;;;;;19.84;63.52;100983.06;7357226;19;20018;-57
2023/08/09 07:01:11;;;;;;;0.10;0.10;;;;;;;19.88;63.67;100989.06;7357912;19;20026;-57
2023/08/09 07:03:37;;;;;;;0.10;0.10;;;;;;;19.89;63.76;100981.03;7349375;19;20094;-55
2023/08/09 07:06:03;;;;;;;0.10;0.10;;;;;;;19.91;63.82;100983.56;7352887;19;20490;-57
2023/08/09 07:08:28;;;;;;;0.10;0.10;;;;;;;19.94;63.92;100978.97;7355216;19;20015;-57
2023/08/09 07:10:55;;;;;;;0.10;0.10;;;;;;;19.97;63.93;100985.88;7356477;19;20015;-56
2023/08/09 07:13:21;;;;;;;0.08;0.08;;;;;;;20.01;63.77;100989.19;7355417;19;20020;-56
2023/08/09 07:15:46;;;;;;;0.00;0.00;;;;;;;20.01;63.94;100982.09;7349480;19;20918;-56
2023/08/09 07:18:11;;;;;;;0.10;0.10;;;;;;;20.08;64.34;100979.97;7357034;19;20011;-57
2023/08/09 07:20:37;;;;;;;0.00;0.00;;;;;;;20.10;64.26;100981.56;7354147;19;20014;-57
2023/08/09 07:23:02;;;;;;;0.03;0.03;;;;;;;20.14;63.85;100982.25;7354321;19;20103;-56
2023/08/09 07:25:28;;;;;;;0.00;0.00;;;;;;;20.16;63.94;100983.00;7354178;19;20018;-58
2023/08/09 07:27:53;;;;;;;0.00;0.00;;;;;;;20.19;64.14;100982.84;7351673;19;20018;-57
2023/08/09 07:30:19;;;;;;;0.00;0.00;;;;;;;20.18;63.89;100986.44;7350762;19;20014;-57
2023/08/09 07:32:45;;;;;;;0.10;0.10;;;;;;;20.25;64.05;100987.78;7354530;19;20019;-57
2023/08/09 07:35:12;;;;;;;0.00;0.00;;;;;;;20.31;64.58;100998.03;7353303;19;20003;-56
2023/08/09 07:37:41;;;;;;;0.10;0.10;;;;;;;20.36;64.15;100995.97;7354841;19;20015;-54
2023/08/09 07:40:08;;;;;;;0.10;0.10;;;;;;;20.41;64.27;101009.81;7353617;19;20013;-57
2023/08/09 07:42:35;;;;;;;0.10;0.10;;;;;;;20.50;63.93;101007.59;7355219;19;20569;-57
2023/08/09 07:45:01;;;;;;;0.10;0.10;;;;;;;20.42;63.92;100990.28;7348805;19;20014;-57
2023/08/09 07:47:27;;;;;;;0.00;0.00;;;;;;;20.56;64.12;101012.53;7355250;19;20026;-58
2023/08/09 07:49:52;;;;;;;0.10;0.10;;;;;;;20.63;64.33;101005.91;7353569;19;20033;-57
2023/08/09 07:52:17;;;;;;;0.00;0.00;;;;;;;20.66;64.07;101013.69;7344923;19;20014;-56
2023/08/09 07:54:43;;;;;;;0.10;0.10;;;;;;;20.72;64.45;101010.66;7353624;19;20015;-57
2023/08/09 07:57:09;;;;;;;0.10;0.10;;;;;;;20.73;63.85;101010.59;7352120;19;20021;-57
2023/08/09 07:59:34;;;;;;;0.10;0.10;;;;;;;20.83;63.93;101016.19;7210674;19;2802993;-54
2023/08/09 08:02:00;;;;;;;0.10;0.10;;;;;;;20.89;64.26;101026.44;7356021;19;20007;-56
2023/08/09 08:04:25;;;;;;;0.00;0.00;;;;;;;20.94;64.03;101021.72;7355332;19;20034;-58
2023/08/09 08:06:51;;;;;;;0.10;0.10;;;;;;;20.99;64.13;101016.97;7355892;19;20018;-57
2023/08/09 08:09:18;;;;;;;0.08;0.08;;;;;;;20.96;63.58;101011.84;7351796;19;20046;-56
2023/08/09 08:11:43;;;;;;;0.10;0.10;;;;;;;21.10;63.58;101020.78;7355132;19;20014;-56
2023/08/09 08:14:09;;;;;;;0.10;0.10;;;;;;;21.11;63.61;101019.81;7356003;19;20368;-57
2023/08/09 08:16:35;;;;;;;0.10;0.10;;;;;;;21.21;63.64;101026.28;7350127;19;20006;-57
2023/08/09 08:19:01;;;;;;;0.08;0.08;;;;;;;21.24;63.99;101031.41;7357791;19;20015;-57
2023/08/09 08:21:27;;;;;;;0.03;0.03;;;;;;;21.30;63.84;101032.81;7359502;19;20613;-58
2023/08/09 08:23:53;;;;;;;0.10;0.10;;;;;;;21.32;63.53;101029.13;7350817;19;20010;-57
2023/08/09 08:26:18;;;;;;;0.10;0.10;;;;;;;21.40;62.92;101040.16;7351692;19;20011;-57
2023/08/09 08:28:44;;;;;;;0.08;0.08;;;;;;;21.44;63.22;101033.72;7352635;19;20018;-56
2023/08/09 08:31:09;;;;;;;0.10;0.10;;;;;;;21.46;63.44;101036.25;7357140;19;20369;-57
2023/08/09 08:33:35;;;;;;;0.10;0.10;;;;;;;21.50;63.13;101033.31;7357201;19;20006;-58
2023/08/09 08:36:01;;;;;;;0.00;0.00;;;;;;;21.54;63.43;101033.09;7356720;19;21127;-56
2023/08/09 08:38:27;;;;;;;0.10;0.10;;;;;;;21.53;63.44;101026.94;7356533;19;20012;-56
2023/08/09 08:40:54;;;;;;;0.08;0.08;;;;;;;21.65;63.12;101035.97;7354644;19;20364;-57
2023/08/09 08:43:20;;;;;;;0.10;0.10;;;;;;;21.68;63.27;101035.75;7355155;19;20029;-58
2023/08/09 08:45:47;;;;;;;0.10;0.10;;;;;;;21.71;63.48;101035.56;7357149;19;20014;-57
2023/08/09 08:48:12;;;;;;;0.10;0.10;;;;;;;21.75;63.32;101031.75;7356465;19;20801;-56
2023/08/09 08:50:39;;;;;;;0.10;0.10;;;;;;;21.80;62.96;101034.13;7355093;19;20017;-55
2023/08/09 08:53:06;;;;;;;0.10;0.10;;;;;;;21.83;63.57;101034.75;7358667;19;21000;-55
2023/08/09 08:55:31;;;;;;;0.10;0.10;;;;;;;21.91;63.29;101043.09;7350017;19;20018;-57
2023/08/09 08:57:57;;;;;;;0.10;0.10;;;;;;;21.93;63.32;101035.03;7357011;19;20018;-55
2023/08/09 09:00:23;;;;;;;0.00;0.00;;;;;;;22.02;63.44;101035.28;7352649;19;20050;-56
2023/08/09 09:02:49;;;;;;;0.10;0.10;;;;;;;22.12;63.18;101040.03;7353339;19;20673;-56
2023/08/09 09:05:16;;;;;;;0.10;0.10;;;;;;;22.20;63.22;101030.59;7354691;19;20036;-56
2023/08/09 09:07:43;;;;;;;0.00;0.00;;;;;;;22.29;62.67;101037.09;7354624;19;20013;-58
2023/08/09 09:10:09;;;;;;;;;;;;;;;22.46;61.30;101026.19;7351680;19;20048;-56
2023/08/09 09:12:36;;;;;;;0.10;0.10;;;;;;;22.47;62.03;101035.88;7354894;19;20756;-57
2023/08/09 09:15:04;;;;;;;0.00;0.00;;;;;;;22.53;62.00;101018.66;7355460;19;20002;-57
2023/08/09 09:17:30;;;;;;;0.10;0.10;;;;;;;22.60;61.86;101019.06;7354619;19;20018;-57
2023/08/09 09:19:56;;;;;;;0.10;0.10;;;;;;;22.68;61.80;101016.75;7355651;19;20018;-56
2023/08/09 09:22:29;;;;;;;0.08;0.08;;;;;;;22.83;61.69;101018.38;7356339;19;20014;-57
2023/08/09 09:24:59;;;;;;;0.10;0.10;;;;;;;22.95;61.68;101030.00;7345329;19;20025;-56
2023/08/09 09:27:27;;;;;;;0.00;0.00;;;;;;;23.13;62.09;101017.22;7337920;19;20600;-58
2023/08/09 09:29:52;;;;;;;0.00;0.00;;;;;;;23.28;61.47;101016.16;7352327;19;20762;-57
2023/08/09 09:32:18;;;;;;;0.10;0.10;;;;;;;23.44;61.49;101013.22;7355601;19;20010;-57
2023/08/09 09:34:44;;;;;;;0.10;0.10;;;;;;;23.69;61.44;101015.03;7355709;19;20094;-57
2023/08/09 09:37:10;;;;;;;0.20;0.20;;;;;;;23.86;61.07;101008.44;7348396;19;20002;-57
2023/08/09 09:39:37;;;;;;;0.10;0.10;;;;;;;24.22;60.14;101023.53;7355015;19;20073;-56
2023/08/09 09:42:03;;;;;;;0.10;0.10;;;;;;;24.42;59.79;101009.56;7356663;19;20082;-57
2023/08/09 09:44:29;;;;;;;0.10;0.10;;;;;;;24.71;59.41;101022.53;7355951;19;20012;-58
2023/08/09 09:46:54;;;;;;;0.10;0.10;;;;;;;24.96;58.85;101024.16;7331585;19;20384;-57
2023/08/09 09:49:20;;;;;;;0.10;0.10;;;;;;;25.18;59.02;101026.00;7346316;19;20018;-58
2023/08/09 09:51:47;;;;;;;0.10;0.10;;;;;;;25.38;58.00;101025.28;7354813;19;20013;-55
2023/08/09 09:54:15;;;;;;;0.10;0.10;;;;;;;25.56;57.43;101029.16;7349703;19;20023;-58
2023/08/09 09:56:40;;;;;;;0.10;0.10;;;;;;;25.70;56.99;101029.84;7329810;19;20070;-58
2023/08/09 09:59:07;;;;;;;0.10;0.10;;;;;;;25.84;56.52;101034.97;7352645;19;20018;-56
2023/08/09 10:01:36;;;;;;;0.10;0.10;;;;;;;25.93;56.65;101026.19;7350131;19;21020;-57
2023/08/09 10:04:06;;;;;;;0.00;0.00;;;;;;;26.10;56.60;101038.19;7351182;19;20363;-56
2023/08/09 10:06:39;;;;;;;0.08;0.08;;;;;;;26.14;55.59;101034.28;7349080;19;20011;-58
2023/08/09 10:09:08;;;;;;;0.10;0.10;;;;;;;26.18;55.73;101034.88;7351591;19;20022;-56
2023/08/09 10:11:34;;;;;;;0.10;0.10;;;;;;;26.14;55.61;101032.44;7352697;19;20006;-56
2023/08/09 10:14:02;;;;;;;0.10;0.10;;;;;;;26.18;55.30;101032.19;7350353;19;20017;-57
2023/08/09 10:16:31;;;;;;;0.00;0.00;;;;;;;26.19;54.78;101033.91;7350023;19;20010;-57
2023/08/09 10:19:02;;;;;;;0.10;0.10;;;;;;;26.18;54.68;101034.88;7354359;19;20072;-57
2023/08/09 10:21:27;;;;;;;0.10;0.10;;;;;;;26.13;55.12;101028.06;7351973;19;20765;-57
2023/08/09 10:24:12;;;;;;;0.10;0.10;;;;;;;26.24;55.27;101034.38;7352408;19;20028;-58
2023/08/09 10:26:39;;;;;;;0.03;0.03;;;;;;;26.13;54.89;101032.59;7351882;19;20018;-56
2023/08/09 10:29:10;;;;;;;0.10;0.10;;;;;;;26.16;55.48;101026.13;7350922;19;20772;-58
2023/08/09 10:31:59;;;;;;;0.10;0.10;;;;;;;26.20;54.98;101032.91;7352379;19;20021;-58
2023/08/09 10:34:40;;;;;;;0.10;0.10;;;;;;;26.18;55.08;101029.53;7350838;19;20014;-58
2023/08/09 10:37:06;;;;;;;0.10;0.10;;;;;;;26.13;55.10;101028.06;7350288;19;20011;-58
2023/08/09 10:39:33;;;;;;;0.03;0.03;;;;;;;26.24;55.48;101029.00;7347038;19;22422;-57
2023/08/09 10:42:09;;;;;;;0.10;0.10;;;;;;;26.44;55.85;101035.41;7350128;19;20014;-57
2023/08/09 10:44:44;;;;;;;0.10;0.10;;;;;;;26.57;55.13;101026.22;7351581;19;20006;-58
2023/08/09 10:47:18;;;;;;;0.10;0.10;;;;;;;26.82;54.85;101030.31;7346903;19;20803;-57
2023/08/09 10:50:00;;;;;;;0.08;0.08;;;;;;;26.92;54.11;101030.38;7353142;19;20014;-58
2023/08/09 10:52:39;;;;;;;0.00;0.00;;;;;;;27.20;54.36;101028.84;7352188;19;20018;-57
2023/08/09 10:55:15;;;;;;;0.10;0.10;;;;;;;27.32;54.07;101032.28;7350732;19;20045;-56
2023/08/09 10:57:42;;;;;;;0.10;0.10;;;;;;;27.41;53.55;101047.56;7349185;19;20025;-57
2023/08/09 11:00:12;;;;;;;0.00;0.00;;;;;;;27.48;52.58;101048.75;7348252;19;20036;-58
2023/08/09 11:02:54;;;;;;;0.00;0.00;;;;;;;27.63;52.82;101050.06;7351195;19;20022;-56
2023/08/09 11:05:20;;;;;;;0.00;0.00;;;;;;;27.58;51.99;101046.09;7354823;19;20018;-57
2023/08/09 11:08:10;;;;;;;0.00;0.00;;;;;;;27.66;52.31;101055.13;7356603;19;20037;-56
2023/08/09 11:10:38;;;;;;;0.10;0.10;;;;;;;27.54;52.24;101056.25;7253665;19;2004424;-58
2023/08/09 11:13:08;;;;;;;0.10;0.10;;;;;;;27.55;52.14;101049.03;7357691;19;20101;-58
2023/08/09 11:15:34;;;;;;;0.10;0.10;;;;;;;27.42;52.57;101050.13;7350942;19;20073;-58
2023/08/09 11:18:01;;;;;;;0.10;0.10;;;;;;;27.40;52.65;101045.88;7355245;19;20027;-56
2023/08/09 11:20:27;;;;;;;0.10;0.10;;;;;;;27.41;53.05;101047.56;7356138;19;20038;-58
2023/08/09 11:22:59;;;;;;;0.10;0.10;;;;;;;27.52;52.86;101043.94;7359210;19;20014;-57
2023/08/09 11:25:27;;;;;;;0.03;0.03;;;;;;;27.56;52.32;101051.56;7354397;19;20014;-57